Time;durP1;ratioP1;P1;durP2;ratioP2;P2;SDS_P1;SDS_P2;PMS_P1;PMS_P2;Temp;Humidity;BMP_temperature;BMP_pressure;BME280_temperature;BME280_humidity;BME280_pressure;Samples;Min_cycle;Max_cycle;Signal;HPM_P1;HPM_P2
2022/12/30 00:01:22;;;;;;;46.38;23.77;;;;;;;;;;10463577;28;20813;-74
2022/12/30 00:06:22;;;;;;;47.00;23.00;;;;;;;;;;10465712;28;20016;-75
2022/12/30 00:11:24;;;;;;;59.92;24.92;;;;;;;;;;10484521;28;20016;-78
2022/12/30 00:37:47;;;;;;;56.28;23.20;;;;;;;;;;10485272;28;20498;-77
2022/12/30 00:58:44;;;;;;;46.63;22.33;;;;;;;;;;10484905;28;20021;-77
2022/12/30 01:03:46;;;;;;;50.05;24.52;;;;;;;;;;10466232;28;20403;-80
2022/12/30 01:08:46;;;;;;;47.80;23.50;;;;;;;;;;10465437;28;20419;-78
2022/12/30 01:13:46;;;;;;;38.28;19.55;;;;;;;;;;10466137;28;20024;-77
2022/12/30 01:18:46;;;;;;;35.27;16.07;;;;;;;;;;10466269;28;20035;-76
2022/12/30 01:23:47;;;;;;;34.73;17.13;;;;;;;;;;10465661;28;20778;-77
2022/12/30 01:28:47;;;;;;;29.60;16.43;;;;;;;;;;10483876;28;20020;-77
2022/12/30 01:33:47;;;;;;;35.72;18.27;;;;;;;;;;10449211;28;20025;-78
2022/12/30 01:38:48;;;;;;;30.15;16.10;;;;;;;;;;10481762;28;20510;-78
2022/12/30 01:43:49;;;;;;;29.80;13.80;;;;;;;;;;10470311;28;20426;-77
2022/12/30 01:48:51;;;;;;;32.28;16.40;;;;;;;;;;10473069;28;20060;-78
2022/12/30 01:53:51;;;;;;;32.55;15.45;;;;;;;;;;10489836;28;20496;-77
2022/12/30 01:59:06;;;;;;;31.47;16.57;;;;;;;;;;10472693;28;20040;-76
2022/12/30 02:04:18;;;;;;;35.08;16.85;;;;;;;;;;10472304;28;20025;-78
2022/12/30 02:09:19;;;;;;;34.83;16.15;;;;;;;;;;10489060;28;20043;-77
2022/12/30 02:14:19;;;;;;;38.08;15.65;;;;;;;;;;10472509;28;20032;-75
2022/12/30 02:19:29;;;;;;;31.88;14.52;;;;;;;;;;10471810;28;20456;-78
2022/12/30 02:24:40;;;;;;;32.97;14.88;;;;;;;;;;10471680;28;20486;-77
2022/12/30 02:29:47;;;;;;;32.15;14.23;;;;;;;;;;10466466;28;20139;-77
2022/12/30 02:34:47;;;;;;;33.90;15.85;;;;;;;;;;10489004;28;20049;-76
2022/12/30 02:39:56;;;;;;;43.45;17.85;;;;;;;;;;10471276;28;20405;-75
2022/12/30 02:45:18;;;;;;;41.30;17.45;;;;;;;;;;10471216;28;20163;-76
2022/12/30 02:55:40;;;;;;;40.90;18.55;;;;;;;;;;10488926;28;20036;-79
2022/12/30 03:06:29;;;;;;;41.65;17.40;;;;;;;;;;10488699;28;20017;-80
2022/12/30 03:11:37;;;;;;;34.58;17.38;;;;;;;;;;10477130;28;20588;-77
2022/12/30 03:16:49;;;;;;;33.00;16.67;;;;;;;;;;10469768;28;20047;-74
2022/12/30 03:21:51;;;;;;;39.78;17.75;;;;;;;;;;10469032;28;20029;-77
2022/12/30 03:27:03;;;;;;;39.22;18.85;;;;;;;;;;10486038;28;20027;-76
2022/12/30 03:32:05;;;;;;;36.03;17.02;;;;;;;;;;10468751;28;20028;-78
2022/12/30 03:37:25;;;;;;;41.90;17.95;;;;;;;;;;10461523;28;20051;-81
2022/12/30 03:42:26;;;;;;;53.60;22.00;;;;;;;;;;10468001;28;20032;-77
2022/12/30 03:47:27;;;;;;;44.13;20.42;;;;;;;;;;10485948;28;20608;-78
2022/12/30 03:52:27;;;;;;;42.47;19.23;;;;;;;;;;10467990;28;20441;-77
2022/12/30 03:57:27;;;;;;;50.90;22.42;;;;;;;;;;10450771;28;20028;-76
2022/12/30 04:02:27;;;;;;;55.33;24.60;;;;;;;;;;10468315;28;20452;-79
2022/12/30 04:07:28;;;;;;;45.58;23.02;;;;;;;;;;10485088;28;20024;-76
2022/12/30 04:12:28;;;;;;;46.28;23.48;;;;;;;;;;10467027;28;20032;-78
2022/12/30 04:17:28;;;;;;;50.95;24.40;;;;;;;;;;10439024;28;20035;-78
2022/12/30 04:22:28;;;;;;;53.72;25.08;;;;;;;;;;10466984;28;20047;-77
2022/12/30 04:27:29;;;;;;;60.58;26.80;;;;;;;;;;10449705;28;20120;-77
2022/12/30 04:32:31;;;;;;;51.63;24.43;;;;;;;;;;10465405;28;20032;-78
2022/12/30 04:37:31;;;;;;;50.88;23.75;;;;;;;;;;10465752;28;20051;-78
2022/12/30 04:42:31;;;;;;;57.95;25.65;;;;;;;;;;10462159;28;20356;-75
2022/12/30 04:47:31;;;;;;;69.72;29.58;;;;;;;;;;10464382;28;20025;-78
2022/12/30 04:52:32;;;;;;;66.63;28.15;;;;;;;;;;10452216;28;20560;-76
2022/12/30 04:57:32;;;;;;;51.40;27.48;;;;;;;;;;10465108;28;20043;-76
2022/12/30 05:02:32;;;;;;;61.13;27.00;;;;;;;;;;10479111;28;20021;-78
2022/12/30 05:07:33;;;;;;;60.40;27.08;;;;;;;;;;10475832;28;20037;-77
2022/12/30 05:12:33;;;;;;;54.00;26.42;;;;;;;;;;10478219;28;20028;-78
2022/12/30 05:17:33;;;;;;;57.30;26.13;;;;;;;;;;10486870;28;20025;-79
2022/12/30 05:22:34;;;;;;;58.63;26.75;;;;;;;;;;10480595;28;20107;-76
2022/12/30 05:27:34;;;;;;;58.53;26.35;;;;;;;;;;10471073;28;20522;-77
2022/12/30 05:32:34;;;;;;;63.17;27.10;;;;;;;;;;10463442;28;20370;-75
2022/12/30 05:37:34;;;;;;;60.63;28.13;;;;;;;;;;10472139;28;20469;-74
2022/12/30 05:42:35;;;;;;;65.25;29.02;;;;;;;;;;10470339;28;20024;-74
2022/12/30 05:47:35;;;;;;;59.92;27.33;;;;;;;;;;10451747;28;20096;-77
2022/12/30 05:52:35;;;;;;;64.00;27.92;;;;;;;;;;10487100;28;20020;-77
2022/12/30 05:57:35;;;;;;;85.65;33.22;;;;;;;;;;10472574;28;20021;-75
2022/12/30 06:02:36;;;;;;;67.32;30.30;;;;;;;;;;10456175;28;20474;-78
2022/12/30 06:07:36;;;;;;;65.90;31.17;;;;;;;;;;10468268;28;20031;-72
2022/12/30 06:12:36;;;;;;;74.87;33.33;;;;;;;;;;10468101;28;20020;-74
2022/12/30 06:17:37;;;;;;;75.97;33.13;;;;;;;;;;10470407;28;20402;-78
2022/12/30 06:22:37;;;;;;;75.28;33.13;;;;;;;;;;10471276;28;20371;-77
2022/12/30 06:27:37;;;;;;;76.60;33.20;;;;;;;;;;10488124;28;20355;-78
2022/12/30 06:32:38;;;;;;;69.82;34.25;;;;;;;;;;10471716;28;20198;-78
2022/12/30 06:37:38;;;;;;;70.72;33.70;;;;;;;;;;10470982;28;20044;-79
2022/12/30 06:42:39;;;;;;;79.60;35.60;;;;;;;;;;10485490;28;20025;-78
2022/12/30 06:47:39;;;;;;;79.97;35.57;;;;;;;;;;10470614;28;20017;-73
2022/12/30 06:52:39;;;;;;;83.10;37.35;;;;;;;;;;10456297;28;20327;-77
2022/12/30 06:57:39;;;;;;;82.43;35.25;;;;;;;;;;10444347;28;20514;-79
2022/12/30 07:02:40;;;;;;;54.67;25.83;;;;;;;;;;10466875;28;20020;-79
2022/12/30 07:07:40;;;;;;;70.70;30.08;;;;;;;;;;10484354;28;20186;-79
2022/12/30 07:12:40;;;;;;;49.97;25.08;;;;;;;;;;10468182;28;20482;-77
2022/12/30 07:17:41;;;;;;;61.53;25.70;;;;;;;;;;10441694;28;20028;-78
2022/12/30 07:22:41;;;;;;;57.47;24.05;;;;;;;;;;10466530;28;20277;-78
2022/12/30 07:27:41;;;;;;;55.43;25.00;;;;;;;;;;10483850;28;20029;-78
2022/12/30 07:32:41;;;;;;;55.85;26.80;;;;;;;;;;10486253;28;20025;-76
2022/12/30 07:37:42;;;;;;;57.70;28.03;;;;;;;;;;10494985;22;20048;-80
2022/12/30 07:42:42;;;;;;;46.70;21.70;;;;;;;;;;10527128;28;20452;-79
2022/12/30 07:47:43;;;;;;;36.50;18.70;;;;;;;;;;10525951;28;20020;-72
2022/12/30 07:52:43;;;;;;;36.25;16.88;;;;;;;;;;10526384;28;20016;-78
2022/12/30 07:57:43;;;;;;;30.08;15.35;;;;;;;;;;10526092;28;20020;-76
2022/12/30 08:02:44;;;;;;;53.80;22.80;;;;;;;;;;10525423;28;20027;-82
2022/12/30 08:07:44;;;;;;;43.03;22.45;;;;;;;;;;10525556;28;20120;-76
2022/12/30 08:12:45;;;;;;;53.63;24.00;;;;;;;;;;10526551;28;20031;-80
2022/12/30 08:17:46;;;;;;;51.38;23.35;;;;;;;;;;10528228;28;20680;-73
2022/12/30 08:22:47;;;;;;;61.67;26.88;;;;;;;;;;10527735;28;20101;-75
2022/12/30 08:27:47;;;;;;;64.27;28.10;;;;;;;;;;10522351;28;20521;-75
2022/12/30 08:32:48;;;;;;;59.58;28.27;;;;;;;;;;10527965;28;20093;-76
2022/12/30 08:37:48;;;;;;;71.13;29.23;;;;;;;;;;10487963;28;20060;-77
2022/12/30 08:42:48;;;;;;;67.00;28.75;;;;;;;;;;10484245;28;20029;-75
2022/12/30 08:47:48;;;;;;;60.25;27.80;;;;;;;;;;10495346;28;20016;-76
2022/12/30 08:52:49;;;;;;;71.88;29.33;;;;;;;;;;10507255;28;20031;-73
2022/12/30 08:57:49;;;;;;;63.90;30.65;;;;;;;;;;10484089;28;20033;-73
2022/12/30 09:02:49;;;;;;;62.08;30.58;;;;;;;;;;10483987;28;20066;-74
2022/12/30 09:07:49;;;;;;;57.50;30.05;;;;;;;;;;10483097;28;20039;-74
2022/12/30 09:12:50;;;;;;;50.42;28.05;;;;;;;;;;10511143;28;20028;-74
2022/12/30 09:17:50;;;;;;;49.85;26.17;;;;;;;;;;10524370;28;20028;-72
2022/12/30 09:22:50;;;;;;;66.82;31.52;;;;;;;;;;10524360;28;20020;-78
2022/12/30 09:27:51;;;;;;;64.53;28.88;;;;;;;;;;10496666;28;20031;-76
2022/12/30 09:32:51;;;;;;;66.30;30.27;;;;;;;;;;10509415;28;20470;-80
2022/12/30 09:37:51;;;;;;;55.75;29.08;;;;;;;;;;10522463;28;20433;-74
2022/12/30 09:48:36;;;;;;;64.30;29.30;;;;;;;;;;10486076;28;20016;-78
2022/12/30 09:53:49;;;;;;;62.33;28.55;;;;;;;;;;10473580;28;20036;-79
2022/12/30 09:58:51;;;;;;;61.13;28.67;;;;;;;;;;10481087;28;20060;-78
2022/12/30 10:03:56;;;;;;;51.70;26.35;;;;;;;;;;10515045;28;20024;-79
2022/12/30 10:09:08;;;;;;;50.90;24.80;;;;;;;;;;10508044;28;20112;-80
2022/12/30 10:14:27;;;;;;;55.05;23.98;;;;;;;;;;10489541;28;20028;-75
2022/12/30 10:19:45;;;;;;;40.13;21.05;;;;;;;;;;10488075;28;20051;-79
2022/12/30 10:24:49;;;;;;;46.78;21.38;;;;;;;;;;10492865;28;20570;-78
2022/12/30 10:29:49;;;;;;;48.88;20.77;;;;;;;;;;10529201;28;20024;-77
2022/12/30 10:35:11;;;;;;;43.15;19.90;;;;;;;;;;10529149;28;20079;-79
2022/12/30 10:40:15;;;;;;;41.45;20.58;;;;;;;;;;10528764;28;20060;-77
2022/12/30 10:45:22;;;;;;;40.67;17.67;;;;;;;;;;10528960;28;20524;-79
2022/12/30 10:50:25;;;;;;;30.30;17.07;;;;;;;;;;10486932;28;20040;-76
2022/12/30 10:55:26;;;;;;;35.70;17.52;;;;;;;;;;10466095;28;20546;-80
2022/12/30 11:00:27;;;;;;;37.85;18.25;;;;;;;;;;10501900;28;20570;-76
2022/12/30 11:05:30;;;;;;;40.53;19.75;;;;;;;;;;10527317;28;20016;-77
2022/12/30 11:10:30;;;;;;;38.13;21.48;;;;;;;;;;10486196;28;20020;-78
2022/12/30 11:15:30;;;;;;;45.75;21.80;;;;;;;;;;10486609;28;20507;-78
2022/12/30 11:20:36;;;;;;;44.30;21.30;;;;;;;;;;10485230;28;20025;-77
2022/12/30 11:25:42;;;;;;;37.70;18.48;;;;;;;;;;10485588;28;20025;-79
2022/12/30 11:30:44;;;;;;;39.33;16.33;;;;;;;;;;10485674;28;20094;-78
2022/12/30 11:35:49;;;;;;;31.52;16.92;;;;;;;;;;10485957;28;20104;-77
2022/12/30 11:40:49;;;;;;;31.98;17.40;;;;;;;;;;10460284;28;20465;-77
2022/12/30 11:45:58;;;;;;;32.90;16.52;;;;;;;;;;10463470;28;20016;-78
2022/12/30 11:50:59;;;;;;;34.78;16.73;;;;;;;;;;10484060;28;20035;-77
2022/12/30 11:55:59;;;;;;;33.03;16.65;;;;;;;;;;10507456;28;20016;-77
2022/12/30 12:01:02;;;;;;;36.00;19.20;;;;;;;;;;10525802;28;20409;-80
2022/12/30 12:06:10;;;;;;;38.85;20.10;;;;;;;;;;10525105;28;20016;-77
2022/12/30 12:11:22;;;;;;;36.40;20.40;;;;;;;;;;10526992;28;20059;-79
2022/12/30 12:16:46;;;;;;;49.00;23.73;;;;;;;;;;10525099;28;20028;-74
2022/12/30 12:21:46;;;;;;;44.75;23.60;;;;;;;;;;10517169;28;20039;-79
2022/12/30 12:27:00;;;;;;;48.90;25.55;;;;;;;;;;10524570;28;20036;-78
2022/12/30 12:32:20;;;;;;;47.05;25.27;;;;;;;;;;10484904;28;20079;-78
2022/12/30 12:37:23;;;;;;;61.15;26.85;;;;;;;;;;10507010;28;20040;-73
2022/12/30 12:42:41;;;;;;;47.95;25.27;;;;;;;;;;10519528;28;20028;-78
2022/12/30 12:48:00;;;;;;;50.70;25.23;;;;;;;;;;10482540;28;20031;-80
2022/12/30 12:53:11;;;;;;;68.35;31.45;;;;;;;;;;10457892;28;20029;-78
2022/12/30 12:58:15;;;;;;;53.13;25.90;;;;;;;;;;10462152;28;20074;-78
2022/12/30 13:03:30;;;;;;;58.75;27.85;;;;;;;;;;10504996;28;20513;-80
2022/12/30 13:08:48;;;;;;;50.33;24.92;;;;;;;;;;10498171;28;20508;-76
2022/12/30 13:13:48;;;;;;;;;;;;;;;;;;10499154;28;20021;-79
2022/12/30 13:18:50;;;;;;;51.75;27.23;;;;;;;;;;10533711;28;20365;-76
2022/12/30 13:23:53;;;;;;;62.92;29.25;;;;;;;;;;10498974;28;20470;-75
2022/12/30 13:28:55;;;;;;;58.17;27.42;;;;;;;;;;10492590;28;20626;-81
2022/12/30 13:33:55;;;;;;;60.22;27.90;;;;;;;;;;10508713;28;20517;-79
2022/12/30 13:39:34;;;;;;;50.72;26.58;;;;;;;;;;10489944;28;20164;-80
2022/12/30 13:44:36;;;;;;;53.25;26.65;;;;;;;;;;10375324;28;20024;-79
2022/12/30 13:49:39;;;;;;;61.65;27.00;;;;;;;;;;10477901;28;20032;-79
2022/12/30 13:54:48;;;;;;;61.35;28.27;;;;;;;;;;10510618;28;20107;-78
2022/12/30 14:00:05;;;;;;;55.97;28.17;;;;;;;;;;10508821;28;20115;-79
2022/12/30 14:05:25;;;;;;;58.05;28.30;;;;;;;;;;10488297;28;20055;-77
2022/12/30 14:10:49;;;;;;;62.83;30.17;;;;;;;;;;10463628;28;20028;-78
2022/12/30 14:15:51;;;;;;;58.53;28.58;;;;;;;;;;10512899;28;20469;-77
2022/12/30 14:20:56;;;;;;;61.55;28.70;;;;;;;;;;10476604;28;20023;-81
2022/12/30 14:26:16;;;;;;;70.78;26.52;;;;;;;;;;10487879;28;20031;-79
2022/12/30 14:31:29;;;;;;;79.40;31.90;;;;;;;;;;10503607;28;20624;-78
2022/12/30 14:36:31;;;;;;;77.07;29.23;;;;;;;;;;10508038;28;20029;-77
2022/12/30 14:41:37;;;;;;;63.65;32.38;;;;;;;;;;10488368;28;20068;-77
2022/12/30 14:46:40;;;;;;;75.40;32.28;;;;;;;;;;10511904;28;20797;-77
2022/12/30 14:51:42;;;;;;;63.47;29.80;;;;;;;;;;10505841;28;20055;-78
2022/12/30 14:56:54;;;;;;;61.83;30.67;;;;;;;;;;10471448;28;20035;-80
2022/12/30 15:02:12;;;;;;;59.38;30.15;;;;;;;;;;10486539;28;20024;-81
2022/12/30 15:07:18;;;;;;;59.90;27.93;;;;;;;;;;10486291;28;20078;-77
2022/12/30 15:12:20;;;;;;;64.13;31.80;;;;;;;;;;10485521;28;20119;-82
2022/12/30 15:17:27;;;;;;;67.88;32.95;;;;;;;;;;10484124;28;20464;-78
2022/12/30 15:22:28;;;;;;;71.43;32.13;;;;;;;;;;10489618;28;20029;-81
2022/12/30 15:27:30;;;;;;;76.22;34.42;;;;;;;;;;10506096;28;20032;-78
2022/12/30 15:32:32;;;;;;;64.38;31.20;;;;;;;;;;10480955;28;20511;-78
2022/12/30 15:37:33;;;;;;;61.72;30.15;;;;;;;;;;10484806;28;20053;-79
2022/12/30 15:42:39;;;;;;;74.90;30.80;;;;;;;;;;10493564;28;20020;-79
2022/12/30 15:47:39;;;;;;;69.43;32.97;;;;;;;;;;10498560;28;20093;-76
2022/12/30 15:52:40;;;;;;;65.20;30.13;;;;;;;;;;10484434;28;20020;-79
2022/12/30 15:57:41;;;;;;;68.25;29.38;;;;;;;;;;10476742;28;20031;-76
2022/12/30 16:02:44;;;;;;;56.25;26.67;;;;;;;;;;10478697;28;20088;-78
2022/12/30 16:07:44;;;;;;;76.05;29.08;;;;;;;;;;10480105;28;20024;-79
2022/12/30 16:12:46;;;;;;;83.90;36.17;;;;;;;;;;10470187;28;20070;-76
2022/12/30 16:17:46;;;;;;;69.55;31.27;;;;;;;;;;10468886;28;20020;-80
2022/12/30 16:22:47;;;;;;;66.38;30.10;;;;;;;;;;10507673;28;20012;-81
2022/12/30 16:27:47;;;;;;;66.03;30.20;;;;;;;;;;10511629;28;20452;-79
2022/12/30 16:32:48;;;;;;;70.45;28.90;;;;;;;;;;10493373;28;20327;-80
2022/12/30 16:37:48;;;;;;;72.05;26.80;;;;;;;;;;10502443;28;20049;-80
2022/12/30 16:42:49;;;;;;;70.23;28.80;;;;;;;;;;10482475;28;20473;-80
2022/12/30 16:47:52;;;;;;;69.47;29.02;;;;;;;;;;10484140;28;20029;-79
2022/12/30 16:52:54;;;;;;;54.50;26.50;;;;;;;;;;10488908;28;20021;-78
2022/12/30 16:57:55;;;;;;;61.15;27.27;;;;;;;;;;10507215;28;20047;-74
2022/12/30 17:02:55;;;;;;;50.90;23.30;;;;;;;;;;10513492;28;20013;-77
2022/12/30 17:07:56;;;;;;;54.00;24.67;;;;;;;;;;10457505;28;20031;-72
2022/12/30 17:12:56;;;;;;;72.72;25.00;;;;;;;;;;10448344;28;20024;-77
2022/12/30 17:17:57;;;;;;;49.22;25.02;;;;;;;;;;10485208;28;20115;-81
2022/12/30 17:22:58;;;;;;;52.40;21.15;;;;;;;;;;10498724;28;20405;-79
2022/12/30 17:27:59;;;;;;;51.03;22.48;;;;;;;;;;10514510;28;20074;-75
2022/12/30 17:32:59;;;;;;;54.58;22.98;;;;;;;;;;10507621;28;20116;-78
2022/12/30 17:37:59;;;;;;;53.22;23.13;;;;;;;;;;10489083;28;20106;-79
2022/12/30 17:43:00;;;;;;;56.33;22.13;;;;;;;;;;10512967;28;20019;-78
2022/12/30 17:48:00;;;;;;;35.10;18.27;;;;;;;;;;10478593;28;20025;-77
2022/12/30 17:53:00;;;;;;;38.75;15.20;;;;;;;;;;10471801;28;20025;-74
2022/12/30 17:58:00;;;;;;;41.17;17.70;;;;;;;;;;10483348;28;20021;-78
2022/12/30 18:03:01;;;;;;;29.85;14.93;;;;;;;;;;10470811;28;20021;-77
2022/12/30 18:08:01;;;;;;;32.45;15.45;;;;;;;;;;10461677;28;20059;-78
2022/12/30 18:13:01;;;;;;;33.20;15.68;;;;;;;;;;10467253;28;20033;-72
2022/12/30 18:18:02;;;;;;;35.70;14.82;;;;;;;;;;10487026;28;20021;-76
2022/12/30 18:23:02;;;;;;;32.38;15.00;;;;;;;;;;10479984;22;20040;-76
2022/12/30 18:28:02;;;;;;;31.42;15.18;;;;;;;;;;10435497;28;20376;-77
2022/12/30 18:33:03;;;;;;;29.77;13.52;;;;;;;;;;10414997;28;20474;-73
2022/12/30 18:38:03;;;;;;;24.33;12.93;;;;;;;;;;10417420;28;20053;-74
2022/12/30 18:43:04;;;;;;;26.73;12.03;;;;;;;;;;10410367;28;20021;-78
2022/12/30 18:48:04;;;;;;;25.48;13.68;;;;;;;;;;10424101;28;20055;-72
2022/12/30 18:53:05;;;;;;;27.58;12.95;;;;;;;;;;10413129;28;20063;-77
2022/12/30 18:58:05;;;;;;;34.42;14.18;;;;;;;;;;10405810;28;20032;-72
2022/12/30 19:03:05;;;;;;;35.33;14.07;;;;;;;;;;10399235;28;20068;-73
2022/12/30 19:08:05;;;;;;;35.85;14.48;;;;;;;;;;10415238;28;20033;-72
2022/12/30 19:13:06;;;;;;;29.65;14.02;;;;;;;;;;10411771;28;20061;-75
2022/12/30 19:18:06;;;;;;;36.90;15.77;;;;;;;;;;10407253;28;20601;-77
2022/12/30 19:23:06;;;;;;;29.65;15.30;;;;;;;;;;10402482;28;20626;-75
2022/12/30 19:28:06;;;;;;;34.10;17.88;;;;;;;;;;10407057;28;20029;-71
2022/12/30 19:33:07;;;;;;;42.47;18.45;;;;;;;;;;10412169;28;20121;-76
2022/12/30 19:38:07;;;;;;;44.28;18.23;;;;;;;;;;10412383;28;20045;-77
2022/12/30 19:43:08;;;;;;;42.83;19.70;;;;;;;;;;10417071;28;20076;-77
2022/12/30 19:48:09;;;;;;;41.00;18.65;;;;;;;;;;10418534;28;20119;-72
2022/12/30 19:53:09;;;;;;;51.45;19.83;;;;;;;;;;10419598;28;20022;-77
2022/12/30 19:58:11;;;;;;;49.22;20.90;;;;;;;;;;10409905;28;20088;-76
2022/12/30 20:03:11;;;;;;;50.43;20.03;;;;;;;;;;10407807;28;20174;-76
2022/12/30 20:08:11;;;;;;;39.88;20.30;;;;;;;;;;10419520;28;20275;-79
2022/12/30 20:13:11;;;;;;;43.87;20.87;;;;;;;;;;10432333;28;20061;-76
2022/12/30 20:18:12;;;;;;;38.75;20.38;;;;;;;;;;10438103;28;20455;-76
2022/12/30 20:23:12;;;;;;;41.58;19.58;;;;;;;;;;10438317;28;20052;-78
2022/12/30 20:28:12;;;;;;;42.03;17.33;;;;;;;;;;10438401;28;20337;-76
2022/12/30 20:33:12;;;;;;;35.70;16.73;;;;;;;;;;10416983;28;20017;-77
2022/12/30 20:38:13;;;;;;;40.47;15.93;;;;;;;;;;10438621;28;20116;-76
2022/12/30 20:43:13;;;;;;;35.03;17.27;;;;;;;;;;10430836;28;20013;-77
2022/12/30 20:48:13;;;;;;;41.92;20.00;;;;;;;;;;10414397;28;20031;-76
2022/12/30 20:53:13;;;;;;;41.83;19.95;;;;;;;;;;10407325;28;20090;-76
2022/12/30 20:58:14;;;;;;;40.08;18.45;;;;;;;;;;10437675;28;20055;-78
2022/12/30 21:03:14;;;;;;;43.22;19.58;;;;;;;;;;10409405;28;20494;-74
2022/12/30 21:08:14;;;;;;;39.47;20.95;;;;;;;;;;10420799;28;20120;-77
2022/12/30 21:13:14;;;;;;;43.40;19.73;;;;;;;;;;10402967;28;20095;-75
2022/12/30 21:18:15;;;;;;;42.10;19.70;;;;;;;;;;10405412;28;20024;-78
2022/12/30 21:23:15;;;;;;;52.60;24.20;;;;;;;;;;10422054;28;20155;-75
2022/12/30 21:28:15;;;;;;;41.23;20.60;;;;;;;;;;10433634;28;20102;-77
2022/12/30 21:33:15;;;;;;;49.75;21.23;;;;;;;;;;10434757;28;20021;-74
2022/12/30 22:05:12;;;;;;;43.20;18.55;;;;;;;;;;10442040;28;20517;-79
2022/12/30 22:10:14;;;;;;;37.00;20.00;;;;;;;;;;10436366;28;20025;-75
2022/12/30 22:15:15;;;;;;;47.08;21.00;;;;;;;;;;10437846;28;20025;-77
2022/12/30 22:20:16;;;;;;;47.83;22.80;;;;;;;;;;10442665;28;20528;-78
2022/12/30 22:25:17;;;;;;;44.05;20.30;;;;;;;;;;10414453;28;20112;-76
2022/12/30 22:30:18;;;;;;;47.35;22.40;;;;;;;;;;10427465;28;20029;-78
2022/12/30 22:35:21;;;;;;;40.72;20.17;;;;;;;;;;10443367;28;20135;-78
2022/12/30 22:40:22;;;;;;;39.78;19.65;;;;;;;;;;10427515;28;20051;-78
2022/12/30 22:45:23;;;;;;;48.88;23.27;;;;;;;;;;10425362;28;20013;-72
2022/12/30 22:50:24;;;;;;;49.53;21.23;;;;;;;;;;10393967;28;20028;-77
2022/12/30 22:55:25;;;;;;;47.15;20.42;;;;;;;;;;10417183;28;20083;-76
2022/12/30 23:00:25;;;;;;;44.10;20.35;;;;;;;;;;10442574;28;20071;-76
2022/12/30 23:05:25;;;;;;;43.35;20.08;;;;;;;;;;10432331;28;20029;-78
2022/12/30 23:10:26;;;;;;;44.87;20.47;;;;;;;;;;10384976;28;20075;-79
2022/12/30 23:20:45;;;;;;;44.70;21.15;;;;;;;;;;10442969;28;20324;-79
2022/12/30 23:25:45;;;;;;;44.50;21.10;;;;;;;;;;10441927;28;20475;-76
2022/12/30 23:30:46;;;;;;;48.97;23.40;;;;;;;;;;10425313;28;20060;-77
2022/12/30 23:35:46;;;;;;;56.43;20.77;;;;;;;;;;10442626;28;20021;-77
2022/12/30 23:40:46;;;;;;;38.20;19.97;;;;;;;;;;10434340;28;20025;-73
2022/12/30 23:45:46;;;;;;;41.30;19.90;;;;;;;;;;10438137;28;20036;-80
2022/12/30 23:50:47;;;;;;;54.87;22.87;;;;;;;;;;10442149;28;20483;-77
2022/12/30 23:55:47;;;;;;;46.47;22.15;;;;;;;;;;10440370;28;20079;-76
